AirNav   Phillips 66 Aviation Fuel
 
 949 users online  

03D Memphis Memorial Airport
Memphis, Missouri, USA

GOING TO MEMPHIS?


FAA INFORMATION EFFECTIVE 23 MAY 2019

Location

FAA Identifier: 03D
Lat/Long: 40-26-50.1000N / 092-13-37.0000W
40-26.835000N / 092-13.616667W
40.4472500 / -92.2269444
(estimated)
Elevation: 813.3 ft. / 247.9 m (surveyed)
Variation: 03E (1985)
From city: 3 miles SW of MEMPHIS, MO
Time zone: UTC -5 (UTC -6 during Standard Time)
Zip code: 63555

Airport Operations

Airport use: Open to the public
Activation date: 05/1966
Control tower: no
ARTCC: KANSAS CITY CENTER
FSS: COLUMBIA FLIGHT SERVICE STATION
NOTAMs facility: COU (NOTAM-D service available)
Attendance: UNATNDD
Wind indicator: lighted
Segmented circle: yes
Lights: DUSK-0100. MIRL RY 12/30 AND PAPI RYS 12 AND 30 OPER DUSK TO 0100. TO INCR INTST AND ACTVT MIRL RY 12/30 AND PAPI RYS 12 AND 30 - CTAF.
Beacon: white-green (lighted land airport)
Operates sunset to sunrise.

Airport Communications

CTAF: 122.9
  • APCH/DEP SVC PRVDD BY KANSAS CITY ARTCC ON FREQS 126.225/317.775 (QUINCY RCAG).

Nearby radio navigation aids

VOR radial/distance  VOR name  Freq  Var
IRKr036/25.1KIRKSVILLE VORTAC114.6006E
OTMr167/35.2OTTUMWA VOR/DME111.6006E

 
NDB name  Hdg/Dist  Freq  Var  ID
BLOOMFIELD151/20.126902EBEX -... . -..-
KEOKUK266/36.236602EEOK . --- -.-

Airport Services

Fuel available: 100LL
FOR FUEL CALL (660) 465-2611.
Parking: tiedowns
Bottled oxygen: NONE
Bulk oxygen: NONE

Runway Information

Runway 12/30

Dimensions: 3300 x 60 ft. / 1006 x 18 m
Surface: concrete, in fair condition
ISOLATED AREAS WITH LONGITUDINAL CRACKING.
Weight bearing capacity: 
Single wheel: 12.5
Runway edge lights: medium intensity
RUNWAY 12  RUNWAY 30
Latitude: 40-26.979298N40-26.691547N
Longitude: 092-13.919165W092-13.315655W
Elevation: 813.2 ft.805.7 ft.
Traffic pattern: leftleft
Markings: nonprecision, in good conditionnonprecision, in good condition
Visual slope indicator: 2-light PAPI on left (3.00 degrees glide path)2-light PAPI on left (3.00 degrees glide path)
Touchdown point: yes, no lightsyes, no lights

Airport Ownership and Management from official FAA records

Ownership: Publicly-owned
Owner: CITY OF MEMPHIS
135 S. MAIN STREET
MEMPHIS, MO 63555
Phone 660-465-7285
Manager: FRED CLAPP
114 WEST MONROE
MEMPHIS, MO 63555
Phone 660-465-2195
CHAIRMAN ARPT BOARD.

Airport Operational Statistics

Aircraft based on the field: 10
Single engine airplanes: 10
    
Aircraft operations: avg 48/week *
72% local general aviation
28% transient general aviation
* for 12-month period ending 31 December 2017

Additional Remarks

RADIO CONTROLLED MODEL PLANES ON & INVOF ARPT.

Instrument Procedures

NOTE: All procedures below are presented as PDF files. If you need a reader for these files, you should download the free Adobe Reader.

NOT FOR NAVIGATION. Please procure official charts for flight.
FAA instrument procedures published for use from 23 May 2019 at 0901Z to 20 June 2019 at 0900Z.

 
IAPs - Instrument Approach Procedures
RNAV (GPS) RWY 12   download (167KB)
RNAV (GPS) RWY 30   download (179KB)
NOTE: Special Take-Off Minimums/Departure Procedures apply   download (233KB)

Other nearby airports with instrument procedures:

4K6 - Bloomfield Municipal Airport (19 nm NW)
KIRK - Kirksville Regional Airport (26 nm SW)
6M6 - Lewis County Regional Airport (32 nm SE)
KTVK - Centerville Municipal Airport (34 nm NW)
KEOK - Keokuk Municipal Airport (36 nm E)
 
Loc | Ops | Rwys | IFR | FBO | Links
Com | Nav | Svcs | Stats | Notes

Kansas City Aviation Department
 
Area around 03D (Memphis Memorial Airport)
 
Road maps at: MapQuest Bing Google
 
Aerial photo
No photo
 
Sectional chart

 
Airport distance calculator
Flying to Memphis Memorial Airport? Find the distance to fly.

From to 03D

Sunrise and sunset
Times for 26-May-2019
 Local
(UTC-5)
 Zulu
(UTC)
Morning civil twilight05:1310:13
Sunrise05:4510:45
Sunset20:2701:27
Evening civil twilight20:5901:59

Current date and time
Zulu (UTC)  26-May-2019 20:01:07
Local (UTC-5)  26-May-2019 15:01:07
 
METAR
KIRK 
26nm SW 
261955Z AUTO 27007KT 10SM SCT030 BKN035 26/19 A3008 RMK AO2 SLP183 T02610189 $
KTVK 
34nm NW 
261955Z AUTO 22003KT 10SM FEW025 SCT031 24/20 A3009 RMK AO2
KEOK 
37nm E 
261955Z AUTO 25006KT 10SM FEW046 BKN055 25/19 A3007 RMK AO2
KFFL 
37nm N 
261955Z AUTO 00000KT 10SM OVC050 24/17 A3007 RMK AO2 PWINO
KOTM 
40nm N 
261953Z AUTO 28004KT 10SM FEW028 SCT035 BKN050 23/17 A3007 RMK AO2 SLP180 T02330172
KFSW 
44nm E 
261955Z AUTO 00000KT 10SM BKN028 BKN039 OVC050 24/19 A3008 RMK AO2
KMPZ 
44nm NE 
261955Z AUTO 26005KT 10SM SCT039 SCT044 SCT055 25/19 A3008 RMK AO2
KOOA 
48nm N 
261955Z AUTO 35003KT 10SM SCT022 BKN036 OVC055 23/18 A3009 RMK AO2 T02280177
TAF
KOTM 
40nm N 
261739Z 2618/2718 VRB03KT P6SM FEW010 SCT025 TEMPO 2618/2621 BKN025 FM262100 36004KT P6SM SCT080 FM271000 11005KT P6SM VCSH BKN100 FM271200 13010G20KT P6SM VCTS OVC020CB TEMPO 2714/2717 4SM TSRA OVC010CB
NOTAMs
Click for the latest NOTAMs
NOTAMs are issued by the DoD/FAA and will open in a separate window not controlled by AirNav.

 

 
 

FBO, Fuel Providers, and Aircraft Ground Support

  
 Business Name 
 
 Contact 
 
 Services / Description 
 
Fuel Prices
 
Comments
  
Memphis Memorial Airport 660-465-7285
no information available

If you are affiliated with Memphis Memorial Airport and would like to show here your services, contact info, web link, logo, and more, click here
100LL
AS $4.25 
 Updated 15-May-2019
 
   write
AS=Assisted/Self Service
Update Fuel Prices
 

Would you like to see your business listed on this page?

 If your business provides an interesting product or service to pilots, flight crews, aircraft, or users of the Memphis Memorial Airport, you should consider listing it here.  To start the listing process, click on the button below
 
Add a business
 

Other Pages about Memphis Memorial Airport

Update a link
 
Copyright © AirNav, LLC. All rights reserved. Privacy Policy  Contact